sensor_id;sensor_type;location;lat;lon;timestamp;P1;durP1;ratioP1;P2;durP2;ratioP2
68050;SDS011;54839;51.364;7.246;2023-03-23T00:01:01;6.30;;;4.73;;
68050;SDS011;54839;51.364;7.246;2023-03-23T00:03:28;8.17;;;5.07;;
68050;SDS011;54839;51.364;7.246;2023-03-23T00:06:02;7.33;;;4.80;;
68050;SDS011;54839;51.364;7.246;2023-03-23T00:08:30;6.10;;;4.20;;
68050;SDS011;54839;51.364;7.246;2023-03-23T00:10:56;8.50;;;4.00;;
68050;SDS011;54839;51.364;7.246;2023-03-23T00:13:24;4.33;;;3.70;;
68050;SDS011;54839;51.364;7.246;2023-03-23T00:15:51;3.90;;;2.93;;
68050;SDS011;54839;51.364;7.246;2023-03-23T00:18:17;5.53;;;3.73;;
68050;SDS011;54839;51.364;7.246;2023-03-23T00:20:48;12.10;;;3.80;;
68050;SDS011;54839;51.364;7.246;2023-03-23T00:23:15;3.90;;;2.90;;
68050;SDS011;54839;51.364;7.246;2023-03-23T00:25:46;4.40;;;3.50;;
68050;SDS011;54839;51.364;7.246;2023-03-23T00:28:12;5.30;;;3.63;;
68050;SDS011;54839;51.364;7.246;2023-03-23T00:30:39;6.57;;;3.63;;
68050;SDS011;54839;51.364;7.246;2023-03-23T00:33:06;3.90;;;3.53;;
68050;SDS011;54839;51.364;7.246;2023-03-23T00:35:33;3.63;;;2.70;;
68050;SDS011;54839;51.364;7.246;2023-03-23T00:38:00;4.80;;;3.53;;
68050;SDS011;54839;51.364;7.246;2023-03-23T00:40:27;2.67;;;2.47;;
68050;SDS011;54839;51.364;7.246;2023-03-23T00:42:53;3.13;;;2.90;;
68050;SDS011;54839;51.364;7.246;2023-03-23T00:45:18;4.87;;;2.83;;
68050;SDS011;54839;51.364;7.246;2023-03-23T00:47:44;9.00;;;2.63;;
68050;SDS011;54839;51.364;7.246;2023-03-23T00:50:15;3.20;;;2.70;;
68050;SDS011;54839;51.364;7.246;2023-03-23T00:52:42;2.53;;;2.30;;
68050;SDS011;54839;51.364;7.246;2023-03-23T00:55:08;6.53;;;3.13;;
68050;SDS011;54839;51.364;7.246;2023-03-23T00:57:34;2.27;;;2.00;;
68050;SDS011;54839;51.364;7.246;2023-03-23T01:00:00;2.93;;;2.50;;
68050;SDS011;54839;51.364;7.246;2023-03-23T01:02:25;4.13;;;2.63;;
68050;SDS011;54839;51.364;7.246;2023-03-23T01:04:51;3.73;;;2.33;;
68050;SDS011;54839;51.364;7.246;2023-03-23T01:07:18;3.80;;;1.90;;
68050;SDS011;54839;51.364;7.246;2023-03-23T01:09:45;6.13;;;3.37;;
68050;SDS011;54839;51.364;7.246;2023-03-23T01:12:11;2.00;;;1.70;;
68050;SDS011;54839;51.364;7.246;2023-03-23T01:14:37;3.57;;;2.63;;
68050;SDS011;54839;51.364;7.246;2023-03-23T01:17:03;4.93;;;2.87;;
68050;SDS011;54839;51.364;7.246;2023-03-23T01:19:29;2.37;;;2.17;;
68050;SDS011;54839;51.364;7.246;2023-03-23T01:21:54;2.50;;;2.17;;
68050;SDS011;54839;51.364;7.246;2023-03-23T01:24:20;3.73;;;2.27;;
68050;SDS011;54839;51.364;7.246;2023-03-23T01:26:45;3.97;;;2.20;;
68050;SDS011;54839;51.364;7.246;2023-03-23T01:29:12;5.13;;;3.10;;
68050;SDS011;54839;51.364;7.246;2023-03-23T01:31:38;5.03;;;3.07;;
68050;SDS011;54839;51.364;7.246;2023-03-23T01:34:04;3.80;;;2.30;;
68050;SDS011;54839;51.364;7.246;2023-03-23T01:36:30;5.43;;;2.30;;
68050;SDS011;54839;51.364;7.246;2023-03-23T01:38:58;4.87;;;3.00;;
68050;SDS011;54839;51.364;7.246;2023-03-23T01:41:26;3.30;;;3.00;;
68050;SDS011;54839;51.364;7.246;2023-03-23T01:43:56;2.53;;;2.20;;
68050;SDS011;54839;51.364;7.246;2023-03-23T01:46:29;4.37;;;2.20;;
68050;SDS011;54839;51.364;7.246;2023-03-23T01:48:56;4.27;;;2.80;;
68050;SDS011;54839;51.364;7.246;2023-03-23T01:51:26;5.77;;;2.87;;
68050;SDS011;54839;51.364;7.246;2023-03-23T01:56:22;5.40;;;2.40;;
68050;SDS011;54839;51.364;7.246;2023-03-23T01:58:54;4.50;;;3.50;;
68050;SDS011;54839;51.364;7.246;2023-03-23T02:01:20;2.60;;;2.40;;
68050;SDS011;54839;51.364;7.246;2023-03-23T02:03:46;6.87;;;2.83;;
68050;SDS011;54839;51.364;7.246;2023-03-23T02:06:13;4.00;;;3.00;;
68050;SDS011;54839;51.364;7.246;2023-03-23T02:08:40;4.63;;;3.10;;
68050;SDS011;54839;51.364;7.246;2023-03-23T02:11:16;3.43;;;2.40;;
68050;SDS011;54839;51.364;7.246;2023-03-23T02:13:43;5.17;;;2.63;;
68050;SDS011;54839;51.364;7.246;2023-03-23T02:19:03;3.30;;;3.00;;
68050;SDS011;54839;51.364;7.246;2023-03-23T02:27:13;3.43;;;2.70;;
68050;SDS011;54839;51.364;7.246;2023-03-23T02:35:08;4.10;;;3.57;;
68050;SDS011;54839;51.364;7.246;2023-03-23T02:37:49;4.13;;;3.33;;
68050;SDS011;54839;51.364;7.246;2023-03-23T02:40:21;4.40;;;3.07;;
68050;SDS011;54839;51.364;7.246;2023-03-23T02:42:51;3.93;;;2.80;;
68050;SDS011;54839;51.364;7.246;2023-03-23T02:45:20;4.10;;;3.40;;
68050;SDS011;54839;51.364;7.246;2023-03-23T02:47:50;3.00;;;2.70;;
68050;SDS011;54839;51.364;7.246;2023-03-23T02:50:18;4.10;;;3.43;;
68050;SDS011;54839;51.364;7.246;2023-03-23T02:52:47;3.60;;;3.30;;
68050;SDS011;54839;51.364;7.246;2023-03-23T02:55:14;4.00;;;2.67;;
68050;SDS011;54839;51.364;7.246;2023-03-23T02:57:40;3.43;;;3.13;;
68050;SDS011;54839;51.364;7.246;2023-03-23T03:00:10;5.70;;;3.37;;
68050;SDS011;54839;51.364;7.246;2023-03-23T03:02:39;3.17;;;2.40;;
68050;SDS011;54839;51.364;7.246;2023-03-23T03:05:20;3.80;;;2.73;;
68050;SDS011;54839;51.364;7.246;2023-03-23T03:07:58;3.63;;;3.33;;
68050;SDS011;54839;51.364;7.246;2023-03-23T03:13:32;3.83;;;2.10;;
68050;SDS011;54839;51.364;7.246;2023-03-23T03:16:06;3.70;;;3.13;;
68050;SDS011;54839;51.364;7.246;2023-03-23T03:21:21;3.90;;;2.93;;
68050;SDS011;54839;51.364;7.246;2023-03-23T03:23:50;3.80;;;2.80;;
68050;SDS011;54839;51.364;7.246;2023-03-23T03:26:21;5.77;;;3.17;;
68050;SDS011;54839;51.364;7.246;2023-03-23T03:28:51;7.07;;;3.00;;
68050;SDS011;54839;51.364;7.246;2023-03-23T03:31:19;3.03;;;2.70;;
68050;SDS011;54839;51.364;7.246;2023-03-23T03:33:53;4.60;;;2.80;;
68050;SDS011;54839;51.364;7.246;2023-03-23T03:36:23;3.33;;;3.07;;
68050;SDS011;54839;51.364;7.246;2023-03-23T03:38:59;2.80;;;2.60;;
68050;SDS011;54839;51.364;7.246;2023-03-23T03:41:30;3.27;;;2.37;;
68050;SDS011;54839;51.364;7.246;2023-03-23T03:43:56;5.77;;;2.33;;
68050;SDS011;54839;51.364;7.246;2023-03-23T03:46:21;4.10;;;2.73;;
68050;SDS011;54839;51.364;7.246;2023-03-23T03:48:49;5.37;;;2.00;;
68050;SDS011;54839;51.364;7.246;2023-03-23T03:51:16;1.90;;;1.80;;
68050;SDS011;54839;51.364;7.246;2023-03-23T03:53:42;3.23;;;2.43;;
68050;SDS011;54839;51.364;7.246;2023-03-23T03:56:07;3.43;;;2.37;;
68050;SDS011;54839;51.364;7.246;2023-03-23T03:58:33;2.77;;;2.23;;
68050;SDS011;54839;51.364;7.246;2023-03-23T04:01:01;2.73;;;2.33;;
68050;SDS011;54839;51.364;7.246;2023-03-23T04:03:28;3.70;;;2.20;;
68050;SDS011;54839;51.364;7.246;2023-03-23T04:05:54;3.03;;;2.50;;
68050;SDS011;54839;51.364;7.246;2023-03-23T04:08:20;3.70;;;3.10;;
68050;SDS011;54839;51.364;7.246;2023-03-23T04:10:47;3.70;;;2.40;;
68050;SDS011;54839;51.364;7.246;2023-03-23T04:13:13;2.80;;;2.10;;
68050;SDS011;54839;51.364;7.246;2023-03-23T04:15:39;2.83;;;2.37;;
68050;SDS011;54839;51.364;7.246;2023-03-23T04:18:04;2.00;;;1.83;;
68050;SDS011;54839;51.364;7.246;2023-03-23T04:20:30;2.70;;;2.33;;
68050;SDS011;54839;51.364;7.246;2023-03-23T04:22:56;3.40;;;1.57;;
68050;SDS011;54839;51.364;7.246;2023-03-23T04:25:22;5.10;;;2.40;;
68050;SDS011;54839;51.364;7.246;2023-03-23T04:27:48;3.30;;;2.20;;
68050;SDS011;54839;51.364;7.246;2023-03-23T04:30:18;2.90;;;2.07;;
68050;SDS011;54839;51.364;7.246;2023-03-23T04:32:46;2.80;;;2.60;;
68050;SDS011;54839;51.364;7.246;2023-03-23T04:35:15;3.90;;;2.20;;
68050;SDS011;54839;51.364;7.246;2023-03-23T04:37:42;3.27;;;2.00;;
68050;SDS011;54839;51.364;7.246;2023-03-23T04:40:08;2.47;;;1.83;;
68050;SDS011;54839;51.364;7.246;2023-03-23T04:42:37;2.07;;;1.87;;
68050;SDS011;54839;51.364;7.246;2023-03-23T04:45:04;1.53;;;1.43;;
68050;SDS011;54839;51.364;7.246;2023-03-23T04:47:32;4.27;;;2.13;;
68050;SDS011;54839;51.364;7.246;2023-03-23T04:50:04;2.60;;;1.93;;
68050;SDS011;54839;51.364;7.246;2023-03-23T04:52:31;3.17;;;2.20;;
68050;SDS011;54839;51.364;7.246;2023-03-23T04:54:57;2.90;;;1.97;;
68050;SDS011;54839;51.364;7.246;2023-03-23T04:57:23;3.70;;;2.20;;
68050;SDS011;54839;51.364;7.246;2023-03-23T04:59:52;2.87;;;2.33;;
68050;SDS011;54839;51.364;7.246;2023-03-23T05:02:18;2.30;;;2.10;;
68050;SDS011;54839;51.364;7.246;2023-03-23T05:04:43;2.13;;;1.93;;
68050;SDS011;54839;51.364;7.246;2023-03-23T05:07:10;2.67;;;2.40;;
68050;SDS011;54839;51.364;7.246;2023-03-23T05:09:36;2.50;;;2.30;;
68050;SDS011;54839;51.364;7.246;2023-03-23T05:12:08;2.37;;;2.00;;
68050;SDS011;54839;51.364;7.246;2023-03-23T05:14:35;2.57;;;2.00;;
68050;SDS011;54839;51.364;7.246;2023-03-23T05:17:01;4.13;;;2.50;;
68050;SDS011;54839;51.364;7.246;2023-03-23T05:19:27;2.63;;;2.43;;
68050;SDS011;54839;51.364;7.246;2023-03-23T05:21:53;2.93;;;2.10;;
68050;SDS011;54839;51.364;7.246;2023-03-23T05:24:21;3.93;;;2.10;;
68050;SDS011;54839;51.364;7.246;2023-03-23T05:26:47;1.73;;;1.53;;
68050;SDS011;54839;51.364;7.246;2023-03-23T05:29:17;2.20;;;1.90;;
68050;SDS011;54839;51.364;7.246;2023-03-23T05:31:42;2.30;;;1.60;;
68050;SDS011;54839;51.364;7.246;2023-03-23T05:34:09;1.80;;;1.70;;
68050;SDS011;54839;51.364;7.246;2023-03-23T05:36:34;2.60;;;2.40;;
68050;SDS011;54839;51.364;7.246;2023-03-23T05:39:00;2.10;;;1.90;;
68050;SDS011;54839;51.364;7.246;2023-03-23T05:41:28;2.70;;;2.50;;
68050;SDS011;54839;51.364;7.246;2023-03-23T05:43:54;3.17;;;2.03;;
68050;SDS011;54839;51.364;7.246;2023-03-23T05:46:19;2.33;;;2.13;;
68050;SDS011;54839;51.364;7.246;2023-03-23T05:48:45;2.80;;;2.43;;
68050;SDS011;54839;51.364;7.246;2023-03-23T05:51:10;2.43;;;2.23;;
68050;SDS011;54839;51.364;7.246;2023-03-23T05:53:37;4.67;;;2.87;;
68050;SDS011;54839;51.364;7.246;2023-03-23T05:56:02;4.07;;;2.37;;
68050;SDS011;54839;51.364;7.246;2023-03-23T05:58:28;2.33;;;1.70;;
68050;SDS011;54839;51.364;7.246;2023-03-23T06:00:54;2.40;;;2.20;;
68050;SDS011;54839;51.364;7.246;2023-03-23T06:03:20;3.57;;;2.80;;
68050;SDS011;54839;51.364;7.246;2023-03-23T06:05:46;4.00;;;2.40;;
68050;SDS011;54839;51.364;7.246;2023-03-23T06:08:11;2.47;;;2.20;;
68050;SDS011;54839;51.364;7.246;2023-03-23T06:10:37;3.27;;;2.20;;
68050;SDS011;54839;51.364;7.246;2023-03-23T06:13:03;2.80;;;1.97;;
68050;SDS011;54839;51.364;7.246;2023-03-23T06:15:30;3.60;;;2.70;;
68050;SDS011;54839;51.364;7.246;2023-03-23T06:18:00;5.00;;;2.30;;
68050;SDS011;54839;51.364;7.246;2023-03-23T06:20:27;2.83;;;2.60;;
68050;SDS011;54839;51.364;7.246;2023-03-23T06:22:54;2.80;;;2.27;;
68050;SDS011;54839;51.364;7.246;2023-03-23T06:25:19;3.00;;;2.30;;
68050;SDS011;54839;51.364;7.246;2023-03-23T06:27:45;2.60;;;2.40;;
68050;SDS011;54839;51.364;7.246;2023-03-23T06:30:11;4.77;;;2.50;;
68050;SDS011;54839;51.364;7.246;2023-03-23T06:32:39;3.17;;;2.30;;
68050;SDS011;54839;51.364;7.246;2023-03-23T06:35:06;3.20;;;2.77;;
68050;SDS011;54839;51.364;7.246;2023-03-23T06:37:34;3.03;;;2.20;;
68050;SDS011;54839;51.364;7.246;2023-03-23T06:40:00;5.20;;;3.60;;
68050;SDS011;54839;51.364;7.246;2023-03-23T06:42:25;3.33;;;2.40;;
68050;SDS011;54839;51.364;7.246;2023-03-23T06:44:51;4.00;;;2.50;;
68050;SDS011;54839;51.364;7.246;2023-03-23T06:47:17;2.40;;;2.10;;
68050;SDS011;54839;51.364;7.246;2023-03-23T06:49:43;5.60;;;2.40;;
68050;SDS011;54839;51.364;7.246;2023-03-23T06:52:08;3.00;;;2.27;;
68050;SDS011;54839;51.364;7.246;2023-03-23T06:54:34;8.10;;;2.90;;
68050;SDS011;54839;51.364;7.246;2023-03-23T06:56:59;2.27;;;2.07;;
68050;SDS011;54839;51.364;7.246;2023-03-23T06:59:25;9.13;;;2.93;;
68050;SDS011;54839;51.364;7.246;2023-03-23T07:01:51;3.20;;;2.40;;
68050;SDS011;54839;51.364;7.246;2023-03-23T07:04:16;8.80;;;2.77;;
68050;SDS011;54839;51.364;7.246;2023-03-23T07:06:42;5.23;;;2.37;;
68050;SDS011;54839;51.364;7.246;2023-03-23T07:09:07;7.87;;;2.27;;
68050;SDS011;54839;51.364;7.246;2023-03-23T07:11:33;6.40;;;2.30;;
68050;SDS011;54839;51.364;7.246;2023-03-23T07:13:58;2.57;;;1.90;;
68050;SDS011;54839;51.364;7.246;2023-03-23T07:16:24;6.83;;;2.60;;
68050;SDS011;54839;51.364;7.246;2023-03-23T07:18:51;4.70;;;2.30;;
68050;SDS011;54839;51.364;7.246;2023-03-23T07:21:16;7.40;;;2.70;;
68050;SDS011;54839;51.364;7.246;2023-03-23T07:23:42;2.73;;;1.90;;
68050;SDS011;54839;51.364;7.246;2023-03-23T07:26:08;2.70;;;2.10;;
68050;SDS011;54839;51.364;7.246;2023-03-23T07:28:33;2.40;;;1.80;;
68050;SDS011;54839;51.364;7.246;2023-03-23T07:30:59;2.00;;;1.67;;
68050;SDS011;54839;51.364;7.246;2023-03-23T07:33:25;5.60;;;2.43;;
68050;SDS011;54839;51.364;7.246;2023-03-23T07:35:51;3.20;;;2.63;;
68050;SDS011;54839;51.364;7.246;2023-03-23T07:38:16;4.23;;;1.80;;
68050;SDS011;54839;51.364;7.246;2023-03-23T07:40:42;3.13;;;2.30;;
68050;SDS011;54839;51.364;7.246;2023-03-23T07:43:07;5.30;;;1.93;;
68050;SDS011;54839;51.364;7.246;2023-03-23T07:45:33;5.67;;;2.30;;
68050;SDS011;54839;51.364;7.246;2023-03-23T07:47:59;6.50;;;2.30;;
68050;SDS011;54839;51.364;7.246;2023-03-23T07:50:25;3.50;;;1.60;;
68050;SDS011;54839;51.364;7.246;2023-03-23T07:52:53;5.80;;;2.27;;
68050;SDS011;54839;51.364;7.246;2023-03-23T07:55:20;4.83;;;1.43;;
68050;SDS011;54839;51.364;7.246;2023-03-23T07:57:46;2.33;;;1.43;;
68050;SDS011;54839;51.364;7.246;2023-03-23T08:00:14;8.50;;;2.50;;
68050;SDS011;54839;51.364;7.246;2023-03-23T08:02:43;4.60;;;2.30;;
68050;SDS011;54839;51.364;7.246;2023-03-23T08:05:13;2.40;;;1.23;;
68050;SDS011;54839;51.364;7.246;2023-03-23T08:07:40;8.07;;;1.50;;
68050;SDS011;54839;51.364;7.246;2023-03-23T08:10:07;6.53;;;2.13;;
68050;SDS011;54839;51.364;7.246;2023-03-23T08:12:38;5.10;;;1.90;;
68050;SDS011;54839;51.364;7.246;2023-03-23T08:15:05;4.30;;;1.83;;
68050;SDS011;54839;51.364;7.246;2023-03-23T08:17:31;4.63;;;2.10;;
68050;SDS011;54839;51.364;7.246;2023-03-23T08:19:59;6.53;;;1.83;;
68050;SDS011;54839;51.364;7.246;2023-03-23T08:22:25;2.40;;;1.80;;
68050;SDS011;54839;51.364;7.246;2023-03-23T08:24:51;7.00;;;1.73;;
68050;SDS011;54839;51.364;7.246;2023-03-23T08:27:17;5.13;;;2.67;;
68050;SDS011;54839;51.364;7.246;2023-03-23T08:29:46;5.53;;;1.60;;
68050;SDS011;54839;51.364;7.246;2023-03-23T08:32:12;4.33;;;1.43;;
68050;SDS011;54839;51.364;7.246;2023-03-23T08:34:39;4.30;;;1.70;;
68050;SDS011;54839;51.364;7.246;2023-03-23T08:37:06;3.20;;;1.73;;
68050;SDS011;54839;51.364;7.246;2023-03-23T08:39:32;3.10;;;1.90;;
68050;SDS011;54839;51.364;7.246;2023-03-23T08:41:58;2.67;;;1.73;;
68050;SDS011;54839;51.364;7.246;2023-03-23T08:44:24;5.90;;;2.53;;
68050;SDS011;54839;51.364;7.246;2023-03-23T08:46:50;5.57;;;2.17;;
68050;SDS011;54839;51.364;7.246;2023-03-23T08:49:22;7.50;;;3.47;;
68050;SDS011;54839;51.364;7.246;2023-03-23T08:51:49;6.50;;;2.17;;
68050;SDS011;54839;51.364;7.246;2023-03-23T08:54:15;5.97;;;2.30;;
68050;SDS011;54839;51.364;7.246;2023-03-23T08:56:41;5.43;;;1.90;;
68050;SDS011;54839;51.364;7.246;2023-03-23T08:59:07;3.33;;;1.53;;
68050;SDS011;54839;51.364;7.246;2023-03-23T09:01:34;5.60;;;2.17;;
68050;SDS011;54839;51.364;7.246;2023-03-23T09:03:59;2.13;;;1.47;;
68050;SDS011;54839;51.364;7.246;2023-03-23T09:06:25;1.87;;;1.10;;
68050;SDS011;54839;51.364;7.246;2023-03-23T09:08:52;6.23;;;1.90;;
68050;SDS011;54839;51.364;7.246;2023-03-23T09:11:20;3.93;;;2.37;;
68050;SDS011;54839;51.364;7.246;2023-03-23T09:13:46;4.07;;;1.57;;
68050;SDS011;54839;51.364;7.246;2023-03-23T09:16:12;7.37;;;1.77;;
68050;SDS011;54839;51.364;7.246;2023-03-23T09:18:37;2.20;;;1.90;;
68050;SDS011;54839;51.364;7.246;2023-03-23T09:21:03;4.40;;;1.97;;
68050;SDS011;54839;51.364;7.246;2023-03-23T09:23:29;3.60;;;2.10;;
68050;SDS011;54839;51.364;7.246;2023-03-23T09:25:56;2.80;;;1.50;;
68050;SDS011;54839;51.364;7.246;2023-03-23T09:28:22;4.80;;;2.13;;
68050;SDS011;54839;51.364;7.246;2023-03-23T09:30:47;8.70;;;2.00;;
68050;SDS011;54839;51.364;7.246;2023-03-23T09:33:14;4.87;;;1.43;;
68050;SDS011;54839;51.364;7.246;2023-03-23T09:35:40;2.73;;;1.30;;
68050;SDS011;54839;51.364;7.246;2023-03-23T09:38:07;4.50;;;2.87;;
68050;SDS011;54839;51.364;7.246;2023-03-23T09:43:44;5.37;;;1.97;;
68050;SDS011;54839;51.364;7.246;2023-03-23T09:49:28;5.40;;;2.10;;
68050;SDS011;54839;51.364;7.246;2023-03-23T09:54:38;8.25;;;2.67;;
68050;SDS011;54839;51.364;7.246;2023-03-23T09:57:17;6.13;;;2.90;;
68050;SDS011;54839;51.364;7.246;2023-03-23T10:00:00;4.20;;;2.13;;
68050;SDS011;54839;51.364;7.246;2023-03-23T10:02:39;4.00;;;1.50;;
68050;SDS011;54839;51.364;7.246;2023-03-23T10:08:14;5.90;;;1.40;;
68050;SDS011;54839;51.364;7.246;2023-03-23T10:13:16;5.73;;;2.00;;
68050;SDS011;54839;51.364;7.246;2023-03-23T10:15:44;7.83;;;2.07;;
68050;SDS011;54839;51.364;7.246;2023-03-23T10:18:14;4.50;;;1.40;;
68050;SDS011;54839;51.364;7.246;2023-03-23T10:20:53;8.40;;;2.40;;
68050;SDS011;54839;51.364;7.246;2023-03-23T10:31:35;4.93;;;1.73;;
68050;SDS011;54839;51.364;7.246;2023-03-23T10:34:12;3.67;;;1.30;;
68050;SDS011;54839;51.364;7.246;2023-03-23T10:36:51;3.33;;;0.80;;
68050;SDS011;54839;51.364;7.246;2023-03-23T10:39:49;3.20;;;0.80;;
68050;SDS011;54839;51.364;7.246;2023-03-23T10:42:24;3.17;;;1.10;;
68050;SDS011;54839;51.364;7.246;2023-03-23T10:44:51;1.13;;;0.77;;
68050;SDS011;54839;51.364;7.246;2023-03-23T10:47:18;7.00;;;1.27;;
68050;SDS011;54839;51.364;7.246;2023-03-23T10:49:46;1.63;;;1.40;;
68050;SDS011;54839;51.364;7.246;2023-03-23T10:52:24;3.13;;;2.03;;
68050;SDS011;54839;51.364;7.246;2023-03-23T10:57:30;1.73;;;1.13;;
68050;SDS011;54839;51.364;7.246;2023-03-23T10:59:59;1.30;;;1.03;;
68050;SDS011;54839;51.364;7.246;2023-03-23T11:02:47;1.23;;;0.83;;
68050;SDS011;54839;51.364;7.246;2023-03-23T11:05:50;0.97;;;0.87;;
68050;SDS011;54839;51.364;7.246;2023-03-23T11:08:19;3.07;;;1.07;;
68050;SDS011;54839;51.364;7.246;2023-03-23T11:10:48;3.23;;;1.13;;
68050;SDS011;54839;51.364;7.246;2023-03-23T11:13:17;2.80;;;1.40;;
68050;SDS011;54839;51.364;7.246;2023-03-23T11:15:45;1.53;;;1.00;;
68050;SDS011;54839;51.364;7.246;2023-03-23T11:20:55;2.60;;;1.40;;
68050;SDS011;54839;51.364;7.246;2023-03-23T11:28:42;1.10;;;0.80;;
68050;SDS011;54839;51.364;7.246;2023-03-23T11:31:15;1.33;;;0.90;;
68050;SDS011;54839;51.364;7.246;2023-03-23T11:33:50;2.03;;;1.37;;
68050;SDS011;54839;51.364;7.246;2023-03-23T11:36:28;1.53;;;1.00;;
68050;SDS011;54839;51.364;7.246;2023-03-23T11:39:25;2.23;;;1.07;;
68050;SDS011;54839;51.364;7.246;2023-03-23T11:41:54;1.40;;;0.90;;
68050;SDS011;54839;51.364;7.246;2023-03-23T11:44:23;3.63;;;1.70;;
68050;SDS011;54839;51.364;7.246;2023-03-23T11:49:59;1.80;;;1.00;;
68050;SDS011;54839;51.364;7.246;2023-03-23T11:52:40;2.90;;;1.47;;
68050;SDS011;54839;51.364;7.246;2023-03-23T11:55:15;2.90;;;2.13;;
68050;SDS011;54839;51.364;7.246;2023-03-23T11:58:07;10.10;;;6.90;;
68050;SDS011;54839;51.364;7.246;2023-03-23T12:00:38;2.10;;;1.27;;
68050;SDS011;54839;51.364;7.246;2023-03-23T12:06:16;13.97;;;12.40;;
68050;SDS011;54839;51.364;7.246;2023-03-23T12:12:04;1.87;;;1.67;;
68050;SDS011;54839;51.364;7.246;2023-03-23T12:20:32;4.83;;;1.57;;
68050;SDS011;54839;51.364;7.246;2023-03-23T12:23:39;6.20;;;3.87;;
68050;SDS011;54839;51.364;7.246;2023-03-23T12:34:19;2.77;;;2.57;;
68050;SDS011;54839;51.364;7.246;2023-03-23T12:39:55;4.20;;;2.37;;
68050;SDS011;54839;51.364;7.246;2023-03-23T12:43:00;3.00;;;2.33;;
68050;SDS011;54839;51.364;7.246;2023-03-23T12:45:46;2.20;;;2.00;;
68050;SDS011;54839;51.364;7.246;2023-03-23T12:48:28;3.53;;;2.13;;
68050;SDS011;54839;51.364;7.246;2023-03-23T12:53:36;4.63;;;2.53;;
68050;SDS011;54839;51.364;7.246;2023-03-23T12:58:44;3.83;;;2.30;;
68050;SDS011;54839;51.364;7.246;2023-03-23T13:01:23;5.00;;;2.77;;
68050;SDS011;54839;51.364;7.246;2023-03-23T13:03:56;3.73;;;3.20;;
68050;SDS011;54839;51.364;7.246;2023-03-23T13:11:42;6.80;;;2.80;;
68050;SDS011;54839;51.364;7.246;2023-03-23T13:24:44;3.37;;;3.07;;
68050;SDS011;54839;51.364;7.246;2023-03-23T13:27:22;4.67;;;2.37;;
68050;SDS011;54839;51.364;7.246;2023-03-23T13:29:50;9.90;;;3.80;;
68050;SDS011;54839;51.364;7.246;2023-03-23T13:32:17;4.27;;;2.70;;
68050;SDS011;54839;51.364;7.246;2023-03-23T13:34:43;3.90;;;3.20;;
68050;SDS011;54839;51.364;7.246;2023-03-23T13:37:22;3.60;;;3.30;;
68050;SDS011;54839;51.364;7.246;2023-03-23T13:42:28;5.37;;;3.90;;
68050;SDS011;54839;51.364;7.246;2023-03-23T13:45:08;4.90;;;4.17;;
68050;SDS011;54839;51.364;7.246;2023-03-23T13:47:46;4.03;;;3.50;;
68050;SDS011;54839;51.364;7.246;2023-03-23T13:58:24;4.60;;;3.90;;
68050;SDS011;54839;51.364;7.246;2023-03-23T14:05:49;7.20;;;5.90;;
68050;SDS011;54839;51.364;7.246;2023-03-23T14:10:56;6.50;;;5.90;;
68050;SDS011;54839;51.364;7.246;2023-03-23T14:16:04;6.50;;;6.00;;
68050;SDS011;54839;51.364;7.246;2023-03-23T14:18:58;7.83;;;6.00;;
68050;SDS011;54839;51.364;7.246;2023-03-23T14:21:36;5.83;;;5.33;;
68050;SDS011;54839;51.364;7.246;2023-03-23T14:24:08;6.33;;;5.70;;
68050;SDS011;54839;51.364;7.246;2023-03-23T14:26:36;6.87;;;6.20;;
68050;SDS011;54839;51.364;7.246;2023-03-23T14:29:03;8.77;;;7.73;;
68050;SDS011;54839;51.364;7.246;2023-03-23T14:31:30;7.47;;;6.77;;
68050;SDS011;54839;51.364;7.246;2023-03-23T14:34:00;8.63;;;7.73;;
68050;SDS011;54839;51.364;7.246;2023-03-23T14:36:28;8.60;;;7.33;;
68050;SDS011;54839;51.364;7.246;2023-03-23T14:38:56;7.10;;;6.40;;
68050;SDS011;54839;51.364;7.246;2023-03-23T14:41:28;10.23;;;6.37;;
68050;SDS011;54839;51.364;7.246;2023-03-23T14:43:55;6.23;;;4.70;;
68050;SDS011;54839;51.364;7.246;2023-03-23T14:46:21;5.73;;;4.47;;
68050;SDS011;54839;51.364;7.246;2023-03-23T14:48:46;3.77;;;3.37;;
68050;SDS011;54839;51.364;7.246;2023-03-23T14:51:21;6.20;;;2.80;;
68050;SDS011;54839;51.364;7.246;2023-03-23T14:53:47;4.43;;;3.40;;
68050;SDS011;54839;51.364;7.246;2023-03-23T14:56:19;4.43;;;2.43;;
68050;SDS011;54839;51.364;7.246;2023-03-23T14:58:49;3.73;;;2.17;;
68050;SDS011;54839;51.364;7.246;2023-03-23T15:01:19;3.53;;;2.23;;
68050;SDS011;54839;51.364;7.246;2023-03-23T15:03:51;10.10;;;2.63;;
68050;SDS011;54839;51.364;7.246;2023-03-23T15:06:23;5.57;;;2.57;;
68050;SDS011;54839;51.364;7.246;2023-03-23T15:08:53;4.83;;;1.70;;
68050;SDS011;54839;51.364;7.246;2023-03-23T15:11:27;1.30;;;1.20;;
68050;SDS011;54839;51.364;7.246;2023-03-23T15:13:56;2.80;;;1.63;;
68050;SDS011;54839;51.364;7.246;2023-03-23T15:16:29;4.83;;;1.80;;
68050;SDS011;54839;51.364;7.246;2023-03-23T15:18:56;4.17;;;1.50;;
68050;SDS011;54839;51.364;7.246;2023-03-23T15:26:52;4.97;;;2.73;;
68050;SDS011;54839;51.364;7.246;2023-03-23T15:29:20;4.57;;;2.33;;
68050;SDS011;54839;51.364;7.246;2023-03-23T15:31:50;3.80;;;2.03;;
68050;SDS011;54839;51.364;7.246;2023-03-23T15:34:20;5.93;;;2.63;;
68050;SDS011;54839;51.364;7.246;2023-03-23T15:36:54;5.27;;;1.80;;
68050;SDS011;54839;51.364;7.246;2023-03-23T15:39:22;3.00;;;1.90;;
68050;SDS011;54839;51.364;7.246;2023-03-23T15:41:49;5.27;;;2.50;;
68050;SDS011;54839;51.364;7.246;2023-03-23T15:44:20;4.20;;;2.00;;
68050;SDS011;54839;51.364;7.246;2023-03-23T15:50:19;5.47;;;1.80;;
68050;SDS011;54839;51.364;7.246;2023-03-23T15:52:57;5.30;;;2.50;;
68050;SDS011;54839;51.364;7.246;2023-03-23T15:55:28;6.13;;;2.70;;
68050;SDS011;54839;51.364;7.246;2023-03-23T15:58:04;11.97;;;2.53;;
68050;SDS011;54839;51.364;7.246;2023-03-23T16:00:34;4.97;;;2.73;;
68050;SDS011;54839;51.364;7.246;2023-03-23T16:03:01;7.17;;;2.37;;
68050;SDS011;54839;51.364;7.246;2023-03-23T16:05:29;4.43;;;2.10;;
68050;SDS011;54839;51.364;7.246;2023-03-23T16:07:55;2.73;;;2.43;;
68050;SDS011;54839;51.364;7.246;2023-03-23T16:10:22;4.93;;;2.77;;
68050;SDS011;54839;51.364;7.246;2023-03-23T16:12:49;4.87;;;1.90;;
68050;SDS011;54839;51.364;7.246;2023-03-23T16:15:15;4.13;;;2.27;;
68050;SDS011;54839;51.364;7.246;2023-03-23T16:17:41;4.53;;;2.20;;
68050;SDS011;54839;51.364;7.246;2023-03-23T16:20:11;3.17;;;2.43;;
68050;SDS011;54839;51.364;7.246;2023-03-23T16:22:41;3.37;;;2.67;;
68050;SDS011;54839;51.364;7.246;2023-03-23T16:25:07;3.30;;;2.40;;
68050;SDS011;54839;51.364;7.246;2023-03-23T16:27:33;8.70;;;3.33;;
68050;SDS011;54839;51.364;7.246;2023-03-23T16:30:00;9.90;;;4.77;;
68050;SDS011;54839;51.364;7.246;2023-03-23T16:32:27;8.10;;;4.30;;
68050;SDS011;54839;51.364;7.246;2023-03-23T16:34:53;9.97;;;4.77;;
68050;SDS011;54839;51.364;7.246;2023-03-23T16:37:19;4.67;;;3.97;;
68050;SDS011;54839;51.364;7.246;2023-03-23T16:39:45;5.70;;;3.60;;
68050;SDS011;54839;51.364;7.246;2023-03-23T16:42:11;8.00;;;3.60;;
68050;SDS011;54839;51.364;7.246;2023-03-23T16:44:36;4.73;;;3.13;;
68050;SDS011;54839;51.364;7.246;2023-03-23T16:47:02;7.70;;;3.50;;
68050;SDS011;54839;51.364;7.246;2023-03-23T16:49:28;3.33;;;2.80;;
68050;SDS011;54839;51.364;7.246;2023-03-23T16:51:53;4.87;;;3.30;;
68050;SDS011;54839;51.364;7.246;2023-03-23T16:54:19;11.03;;;4.30;;
68050;SDS011;54839;51.364;7.246;2023-03-23T16:56:45;5.30;;;3.87;;
68050;SDS011;54839;51.364;7.246;2023-03-23T16:59:12;9.30;;;5.40;;
68050;SDS011;54839;51.364;7.246;2023-03-23T17:01:38;6.90;;;3.97;;
68050;SDS011;54839;51.364;7.246;2023-03-23T17:04:05;7.80;;;3.63;;
68050;SDS011;54839;51.364;7.246;2023-03-23T17:06:31;11.33;;;4.40;;
68050;SDS011;54839;51.364;7.246;2023-03-23T17:08:57;6.00;;;4.83;;
68050;SDS011;54839;51.364;7.246;2023-03-23T17:11:22;5.10;;;3.93;;